sensor_id;sensor_type;location;lat;lon;timestamp;P1;durP1;ratioP1;P2;durP2;ratioP2
44764;SDS011;30484;52.382;5.260;2022-08-19T00:00:28;25.45;;;13.40;;
44764;SDS011;30484;52.382;5.260;2022-08-19T00:02:57;20.23;;;13.73;;
44764;SDS011;30484;52.382;5.260;2022-08-19T00:05:26;21.73;;;14.52;;
44764;SDS011;30484;52.382;5.260;2022-08-19T00:07:56;23.30;;;13.65;;
44764;SDS011;30484;52.382;5.260;2022-08-19T00:10:29;19.52;;;13.32;;
44764;SDS011;30484;52.382;5.260;2022-08-19T00:13:02;21.15;;;14.60;;
44764;SDS011;30484;52.382;5.260;2022-08-19T00:15:32;21.95;;;14.50;;
44764;SDS011;30484;52.382;5.260;2022-08-19T00:18:04;21.15;;;13.52;;
44764;SDS011;30484;52.382;5.260;2022-08-19T00:20:36;19.67;;;13.82;;
44764;SDS011;30484;52.382;5.260;2022-08-19T00:23:07;18.33;;;13.43;;
44764;SDS011;30484;52.382;5.260;2022-08-19T00:25:36;24.48;;;16.77;;
44764;SDS011;30484;52.382;5.260;2022-08-19T00:28:09;18.23;;;14.30;;
44764;SDS011;30484;52.382;5.260;2022-08-19T00:30:38;22.52;;;14.38;;
44764;SDS011;30484;52.382;5.260;2022-08-19T00:33:07;18.25;;;14.13;;
44764;SDS011;30484;52.382;5.260;2022-08-19T00:35:37;17.83;;;13.95;;
44764;SDS011;30484;52.382;5.260;2022-08-19T00:38:06;25.00;;;15.10;;
44764;SDS011;30484;52.382;5.260;2022-08-19T00:40:38;19.02;;;15.13;;
44764;SDS011;30484;52.382;5.260;2022-08-19T00:43:11;22.35;;;15.23;;
44764;SDS011;30484;52.382;5.260;2022-08-19T00:45:43;22.10;;;16.13;;
44764;SDS011;30484;52.382;5.260;2022-08-19T00:48:15;21.98;;;14.93;;
44764;SDS011;30484;52.382;5.260;2022-08-19T00:50:47;29.75;;;16.90;;
44764;SDS011;30484;52.382;5.260;2022-08-19T00:53:24;27.98;;;16.25;;
44764;SDS011;30484;52.382;5.260;2022-08-19T00:55:58;22.92;;;17.40;;
44764;SDS011;30484;52.382;5.260;2022-08-19T00:58:37;25.42;;;16.30;;
44764;SDS011;30484;52.382;5.260;2022-08-19T01:01:07;26.10;;;16.35;;
44764;SDS011;30484;52.382;5.260;2022-08-19T01:03:41;26.08;;;17.45;;
44764;SDS011;30484;52.382;5.260;2022-08-19T01:06:24;24.58;;;17.00;;
44764;SDS011;30484;52.382;5.260;2022-08-19T01:08:57;22.95;;;16.15;;
44764;SDS011;30484;52.382;5.260;2022-08-19T01:11:27;25.75;;;17.27;;
44764;SDS011;30484;52.382;5.260;2022-08-19T01:14:04;26.67;;;18.10;;
44764;SDS011;30484;52.382;5.260;2022-08-19T01:16:37;29.33;;;16.98;;
44764;SDS011;30484;52.382;5.260;2022-08-19T01:19:12;24.25;;;17.13;;
44764;SDS011;30484;52.382;5.260;2022-08-19T01:21:52;22.58;;;17.15;;
44764;SDS011;30484;52.382;5.260;2022-08-19T01:24:41;29.95;;;15.43;;
44764;SDS011;30484;52.382;5.260;2022-08-19T01:27:17;23.98;;;17.08;;
44764;SDS011;30484;52.382;5.260;2022-08-19T01:29:46;23.73;;;16.42;;
44764;SDS011;30484;52.382;5.260;2022-08-19T01:32:16;23.65;;;16.95;;
44764;SDS011;30484;52.382;5.260;2022-08-19T01:34:59;22.38;;;16.60;;
44764;SDS011;30484;52.382;5.260;2022-08-19T01:37:41;21.25;;;15.40;;
44764;SDS011;30484;52.382;5.260;2022-08-19T01:40:17;22.80;;;16.70;;
44764;SDS011;30484;52.382;5.260;2022-08-19T01:42:52;23.95;;;15.80;;
44764;SDS011;30484;52.382;5.260;2022-08-19T01:45:23;26.38;;;15.75;;
44764;SDS011;30484;52.382;5.260;2022-08-19T01:47:56;25.90;;;15.57;;
44764;SDS011;30484;52.382;5.260;2022-08-19T01:50:28;21.73;;;16.15;;
44764;SDS011;30484;52.382;5.260;2022-08-19T01:53:04;23.63;;;15.50;;
44764;SDS011;30484;52.382;5.260;2022-08-19T01:55:41;22.60;;;16.08;;
44764;SDS011;30484;52.382;5.260;2022-08-19T01:58:17;22.10;;;17.00;;
44764;SDS011;30484;52.382;5.260;2022-08-19T02:00:49;27.95;;;18.05;;
44764;SDS011;30484;52.382;5.260;2022-08-19T02:03:23;26.15;;;17.08;;
44764;SDS011;30484;52.382;5.260;2022-08-19T02:05:55;26.55;;;17.88;;
44764;SDS011;30484;52.382;5.260;2022-08-19T02:08:32;25.38;;;17.17;;
44764;SDS011;30484;52.382;5.260;2022-08-19T02:11:07;29.10;;;15.95;;
44764;SDS011;30484;52.382;5.260;2022-08-19T02:13:36;28.20;;;17.98;;
44764;SDS011;30484;52.382;5.260;2022-08-19T02:16:07;25.42;;;17.20;;
44764;SDS011;30484;52.382;5.260;2022-08-19T02:18:43;24.48;;;17.40;;
44764;SDS011;30484;52.382;5.260;2022-08-19T02:21:13;27.77;;;16.98;;
44764;SDS011;30484;52.382;5.260;2022-08-19T02:23:43;27.13;;;17.60;;
44764;SDS011;30484;52.382;5.260;2022-08-19T02:26:15;21.95;;;16.33;;
44764;SDS011;30484;52.382;5.260;2022-08-19T02:28:45;29.65;;;18.15;;
44764;SDS011;30484;52.382;5.260;2022-08-19T02:31:15;23.20;;;17.13;;
44764;SDS011;30484;52.382;5.260;2022-08-19T02:33:51;24.25;;;17.52;;
44764;SDS011;30484;52.382;5.260;2022-08-19T02:36:23;21.73;;;15.55;;
44764;SDS011;30484;52.382;5.260;2022-08-19T02:38:56;22.75;;;16.80;;
44764;SDS011;30484;52.382;5.260;2022-08-19T02:41:28;22.63;;;16.17;;
44764;SDS011;30484;52.382;5.260;2022-08-19T02:44:03;21.98;;;16.15;;
44764;SDS011;30484;52.382;5.260;2022-08-19T02:46:52;25.73;;;16.50;;
44764;SDS011;30484;52.382;5.260;2022-08-19T02:49:23;23.30;;;16.45;;
44764;SDS011;30484;52.382;5.260;2022-08-19T02:51:52;26.55;;;17.35;;
44764;SDS011;30484;52.382;5.260;2022-08-19T02:54:22;27.17;;;18.08;;
44764;SDS011;30484;52.382;5.260;2022-08-19T02:56:53;28.38;;;17.42;;
44764;SDS011;30484;52.382;5.260;2022-08-19T02:59:22;26.95;;;18.63;;
44764;SDS011;30484;52.382;5.260;2022-08-19T03:01:52;33.20;;;19.25;;
44764;SDS011;30484;52.382;5.260;2022-08-19T03:04:24;25.00;;;17.73;;
44764;SDS011;30484;52.382;5.260;2022-08-19T03:06:54;30.27;;;20.10;;
44764;SDS011;30484;52.382;5.260;2022-08-19T03:09:38;28.10;;;18.70;;
44764;SDS011;30484;52.382;5.260;2022-08-19T03:12:12;30.33;;;19.98;;
44764;SDS011;30484;52.382;5.260;2022-08-19T03:14:42;28.80;;;20.27;;
44764;SDS011;30484;52.382;5.260;2022-08-19T03:17:14;31.60;;;20.60;;
44764;SDS011;30484;52.382;5.260;2022-08-19T03:19:43;31.08;;;20.85;;
44764;SDS011;30484;52.382;5.260;2022-08-19T03:22:12;39.90;;;23.23;;
44764;SDS011;30484;52.382;5.260;2022-08-19T03:24:42;39.55;;;22.20;;
44764;SDS011;30484;52.382;5.260;2022-08-19T03:27:12;29.75;;;20.95;;
44764;SDS011;30484;52.382;5.260;2022-08-19T03:29:41;33.83;;;22.40;;
44764;SDS011;30484;52.382;5.260;2022-08-19T03:32:11;32.55;;;22.35;;
44764;SDS011;30484;52.382;5.260;2022-08-19T03:34:59;31.38;;;22.20;;
44764;SDS011;30484;52.382;5.260;2022-08-19T03:37:29;35.65;;;23.83;;
44764;SDS011;30484;52.382;5.260;2022-08-19T03:39:59;38.58;;;24.27;;
44764;SDS011;30484;52.382;5.260;2022-08-19T03:42:32;40.92;;;25.65;;
44764;SDS011;30484;52.382;5.260;2022-08-19T03:45:14;38.25;;;24.25;;
44764;SDS011;30484;52.382;5.260;2022-08-19T03:47:44;41.55;;;25.55;;
44764;SDS011;30484;52.382;5.260;2022-08-19T03:50:14;40.78;;;25.13;;
44764;SDS011;30484;52.382;5.260;2022-08-19T03:52:48;43.35;;;27.08;;
44764;SDS011;30484;52.382;5.260;2022-08-19T03:55:22;40.25;;;27.08;;
44764;SDS011;30484;52.382;5.260;2022-08-19T03:57:55;40.83;;;25.40;;
44764;SDS011;30484;52.382;5.260;2022-08-19T04:00:27;47.35;;;26.38;;
44764;SDS011;30484;52.382;5.260;2022-08-19T04:02:57;49.78;;;28.63;;
44764;SDS011;30484;52.382;5.260;2022-08-19T04:05:28;52.53;;;30.10;;
44764;SDS011;30484;52.382;5.260;2022-08-19T04:07:59;52.85;;;31.00;;
44764;SDS011;30484;52.382;5.260;2022-08-19T04:10:28;58.75;;;31.85;;
44764;SDS011;30484;52.382;5.260;2022-08-19T04:13:02;57.60;;;32.60;;
44764;SDS011;30484;52.382;5.260;2022-08-19T04:15:38;66.25;;;34.83;;
44764;SDS011;30484;52.382;5.260;2022-08-19T04:18:11;61.10;;;31.45;;
44764;SDS011;30484;52.382;5.260;2022-08-19T04:20:42;57.55;;;33.70;;
44764;SDS011;30484;52.382;5.260;2022-08-19T04:23:14;63.13;;;33.58;;
44764;SDS011;30484;52.382;5.260;2022-08-19T04:25:48;57.10;;;32.63;;
44764;SDS011;30484;52.382;5.260;2022-08-19T04:28:23;62.72;;;33.25;;
44764;SDS011;30484;52.382;5.260;2022-08-19T04:30:54;55.88;;;33.00;;
44764;SDS011;30484;52.382;5.260;2022-08-19T04:33:25;64.07;;;37.13;;
44764;SDS011;30484;52.382;5.260;2022-08-19T04:35:56;75.43;;;45.67;;
44764;SDS011;30484;52.382;5.260;2022-08-19T04:38:30;76.93;;;45.42;;
44764;SDS011;30484;52.382;5.260;2022-08-19T04:41:03;73.00;;;42.72;;
44764;SDS011;30484;52.382;5.260;2022-08-19T04:43:55;90.13;;;53.15;;
44764;SDS011;30484;52.382;5.260;2022-08-19T04:46:29;72.85;;;45.35;;
44764;SDS011;30484;52.382;5.260;2022-08-19T04:49:15;65.38;;;35.60;;
44764;SDS011;30484;52.382;5.260;2022-08-19T04:51:50;61.28;;;37.25;;
44764;SDS011;30484;52.382;5.260;2022-08-19T04:54:24;62.45;;;34.10;;
44764;SDS011;30484;52.382;5.260;2022-08-19T04:57:06;64.25;;;35.50;;
44764;SDS011;30484;52.382;5.260;2022-08-19T04:59:40;57.50;;;32.60;;
44764;SDS011;30484;52.382;5.260;2022-08-19T05:02:12;55.22;;;32.53;;
44764;SDS011;30484;52.382;5.260;2022-08-19T05:04:41;53.38;;;31.42;;
44764;SDS011;30484;52.382;5.260;2022-08-19T05:07:09;54.95;;;31.60;;
44764;SDS011;30484;52.382;5.260;2022-08-19T05:09:40;55.92;;;31.80;;
44764;SDS011;30484;52.382;5.260;2022-08-19T05:12:24;65.03;;;32.47;;
44764;SDS011;30484;52.382;5.260;2022-08-19T05:14:57;58.53;;;32.15;;
44764;SDS011;30484;52.382;5.260;2022-08-19T05:17:27;54.75;;;31.50;;
44764;SDS011;30484;52.382;5.260;2022-08-19T05:20:04;60.50;;;31.17;;
44764;SDS011;30484;52.382;5.260;2022-08-19T05:22:52;65.45;;;33.72;;
44764;SDS011;30484;52.382;5.260;2022-08-19T05:25:23;63.00;;;34.40;;
44764;SDS011;30484;52.382;5.260;2022-08-19T05:27:55;61.75;;;32.15;;
44764;SDS011;30484;52.382;5.260;2022-08-19T05:30:26;62.55;;;32.13;;
44764;SDS011;30484;52.382;5.260;2022-08-19T05:33:15;64.80;;;30.88;;
44764;SDS011;30484;52.382;5.260;2022-08-19T05:35:45;65.40;;;32.67;;
44764;SDS011;30484;52.382;5.260;2022-08-19T05:38:16;70.22;;;35.20;;
44764;SDS011;30484;52.382;5.260;2022-08-19T05:40:46;70.43;;;33.80;;
44764;SDS011;30484;52.382;5.260;2022-08-19T05:43:15;72.05;;;33.72;;
44764;SDS011;30484;52.382;5.260;2022-08-19T05:45:47;76.35;;;35.22;;
44764;SDS011;30484;52.382;5.260;2022-08-19T05:48:16;75.47;;;35.65;;
44764;SDS011;30484;52.382;5.260;2022-08-19T05:50:48;79.22;;;36.97;;
44764;SDS011;30484;52.382;5.260;2022-08-19T05:53:17;77.90;;;37.17;;
44764;SDS011;30484;52.382;5.260;2022-08-19T05:55:48;78.13;;;37.92;;
44764;SDS011;30484;52.382;5.260;2022-08-19T05:58:17;80.35;;;37.90;;
44764;SDS011;30484;52.382;5.260;2022-08-19T06:00:53;74.65;;;37.20;;
44764;SDS011;30484;52.382;5.260;2022-08-19T06:03:24;78.68;;;39.22;;
44764;SDS011;30484;52.382;5.260;2022-08-19T06:05:56;77.15;;;38.95;;
44764;SDS011;30484;52.382;5.260;2022-08-19T06:08:27;79.88;;;39.50;;
44764;SDS011;30484;52.382;5.260;2022-08-19T06:11:11;74.70;;;39.20;;
44764;SDS011;30484;52.382;5.260;2022-08-19T06:13:46;76.38;;;38.80;;
44764;SDS011;30484;52.382;5.260;2022-08-19T06:16:27;69.80;;;37.45;;
44764;SDS011;30484;52.382;5.260;2022-08-19T06:19:04;70.63;;;36.47;;
44764;SDS011;30484;52.382;5.260;2022-08-19T06:21:38;65.85;;;36.45;;
44764;SDS011;30484;52.382;5.260;2022-08-19T06:24:11;67.30;;;37.72;;
44764;SDS011;30484;52.382;5.260;2022-08-19T06:26:46;73.18;;;36.35;;
44764;SDS011;30484;52.382;5.260;2022-08-19T06:29:26;67.57;;;35.00;;
44764;SDS011;30484;52.382;5.260;2022-08-19T06:31:58;67.10;;;35.30;;
44764;SDS011;30484;52.382;5.260;2022-08-19T06:34:30;63.25;;;33.38;;
44764;SDS011;30484;52.382;5.260;2022-08-19T06:37:02;67.90;;;34.67;;
44764;SDS011;30484;52.382;5.260;2022-08-19T06:39:32;65.10;;;33.38;;
44764;SDS011;30484;52.382;5.260;2022-08-19T06:44:40;71.38;;;34.88;;
44764;SDS011;30484;52.382;5.260;2022-08-19T06:47:17;69.35;;;34.90;;
44764;SDS011;30484;52.382;5.260;2022-08-19T06:49:54;66.95;;;34.70;;
44764;SDS011;30484;52.382;5.260;2022-08-19T06:52:31;61.92;;;33.65;;
44764;SDS011;30484;52.382;5.260;2022-08-19T06:55:04;74.75;;;36.83;;
44764;SDS011;30484;52.382;5.260;2022-08-19T06:57:36;61.53;;;34.22;;
44764;SDS011;30484;52.382;5.260;2022-08-19T07:00:07;67.88;;;36.33;;
44764;SDS011;30484;52.382;5.260;2022-08-19T07:02:41;61.70;;;34.00;;
44764;SDS011;30484;52.382;5.260;2022-08-19T07:05:22;72.15;;;36.28;;
44764;SDS011;30484;52.382;5.260;2022-08-19T07:07:51;75.03;;;36.28;;
44764;SDS011;30484;52.382;5.260;2022-08-19T07:10:24;73.95;;;37.97;;
44764;SDS011;30484;52.382;5.260;2022-08-19T07:12:53;72.07;;;35.80;;
44764;SDS011;30484;52.382;5.260;2022-08-19T07:15:22;64.75;;;35.63;;
44764;SDS011;30484;52.382;5.260;2022-08-19T07:17:53;73.40;;;36.03;;
44764;SDS011;30484;52.382;5.260;2022-08-19T07:20:23;66.35;;;35.85;;
44764;SDS011;30484;52.382;5.260;2022-08-19T07:22:54;71.13;;;37.20;;
44764;SDS011;30484;52.382;5.260;2022-08-19T07:25:24;69.47;;;36.92;;
44764;SDS011;30484;52.382;5.260;2022-08-19T07:27:58;79.88;;;40.15;;
44764;SDS011;30484;52.382;5.260;2022-08-19T07:30:30;74.93;;;38.55;;
44764;SDS011;30484;52.382;5.260;2022-08-19T07:33:01;80.43;;;40.08;;
44764;SDS011;30484;52.382;5.260;2022-08-19T07:35:30;82.35;;;39.17;;
44764;SDS011;30484;52.382;5.260;2022-08-19T07:38:01;75.60;;;36.53;;
44764;SDS011;30484;52.382;5.260;2022-08-19T07:40:31;81.57;;;39.47;;
44764;SDS011;30484;52.382;5.260;2022-08-19T07:43:00;76.28;;;37.22;;
44764;SDS011;30484;52.382;5.260;2022-08-19T07:45:29;96.47;;;38.78;;
44764;SDS011;30484;52.382;5.260;2022-08-19T07:48:01;74.55;;;38.65;;
44764;SDS011;30484;52.382;5.260;2022-08-19T07:50:31;69.57;;;34.65;;
44764;SDS011;30484;52.382;5.260;2022-08-19T07:53:00;64.97;;;32.45;;
44764;SDS011;30484;52.382;5.260;2022-08-19T07:55:34;62.72;;;32.13;;
44764;SDS011;30484;52.382;5.260;2022-08-19T07:58:10;56.15;;;29.60;;
44764;SDS011;30484;52.382;5.260;2022-08-19T08:00:42;58.72;;;31.73;;
44764;SDS011;30484;52.382;5.260;2022-08-19T08:03:16;61.83;;;30.45;;
44764;SDS011;30484;52.382;5.260;2022-08-19T08:06:08;65.55;;;31.90;;
44764;SDS011;30484;52.382;5.260;2022-08-19T08:08:58;63.63;;;31.73;;
44764;SDS011;30484;52.382;5.260;2022-08-19T08:11:48;63.75;;;31.75;;
44764;SDS011;30484;52.382;5.260;2022-08-19T08:14:22;67.45;;;33.20;;
44764;SDS011;30484;52.382;5.260;2022-08-19T08:17:00;65.38;;;31.73;;
44764;SDS011;30484;52.382;5.260;2022-08-19T08:19:39;69.38;;;33.10;;
44764;SDS011;30484;52.382;5.260;2022-08-19T08:22:09;61.45;;;30.95;;
44764;SDS011;30484;52.382;5.260;2022-08-19T08:25:02;59.65;;;29.98;;
44764;SDS011;30484;52.382;5.260;2022-08-19T08:27:35;63.40;;;31.13;;
44764;SDS011;30484;52.382;5.260;2022-08-19T08:30:06;60.95;;;31.30;;
44764;SDS011;30484;52.382;5.260;2022-08-19T08:32:38;59.70;;;31.20;;
44764;SDS011;30484;52.382;5.260;2022-08-19T08:35:20;63.15;;;29.33;;
44764;SDS011;30484;52.382;5.260;2022-08-19T08:37:53;56.92;;;29.52;;
44764;SDS011;30484;52.382;5.260;2022-08-19T08:40:26;52.08;;;28.40;;
44764;SDS011;30484;52.382;5.260;2022-08-19T08:43:02;49.38;;;28.13;;
44764;SDS011;30484;52.382;5.260;2022-08-19T08:45:41;55.80;;;28.25;;
44764;SDS011;30484;52.382;5.260;2022-08-19T08:48:30;49.85;;;27.73;;
44764;SDS011;30484;52.382;5.260;2022-08-19T08:51:14;57.05;;;28.73;;
44764;SDS011;30484;52.382;5.260;2022-08-19T08:53:55;49.25;;;27.50;;
44764;SDS011;30484;52.382;5.260;2022-08-19T08:56:24;55.33;;;29.55;;
44764;SDS011;30484;52.382;5.260;2022-08-19T08:58:54;52.58;;;27.90;;
44764;SDS011;30484;52.382;5.260;2022-08-19T09:01:28;55.30;;;29.50;;
44764;SDS011;30484;52.382;5.260;2022-08-19T09:03:57;49.53;;;28.50;;
44764;SDS011;30484;52.382;5.260;2022-08-19T09:06:32;47.83;;;26.70;;
44764;SDS011;30484;52.382;5.260;2022-08-19T09:09:13;48.90;;;28.05;;
44764;SDS011;30484;52.382;5.260;2022-08-19T09:11:50;46.70;;;26.33;;
44764;SDS011;30484;52.382;5.260;2022-08-19T09:14:32;49.00;;;26.45;;
44764;SDS011;30484;52.382;5.260;2022-08-19T09:17:17;46.83;;;26.38;;
44764;SDS011;30484;52.382;5.260;2022-08-19T09:19:57;42.72;;;25.10;;
44764;SDS011;30484;52.382;5.260;2022-08-19T09:22:37;40.35;;;24.90;;
44764;SDS011;30484;52.382;5.260;2022-08-19T09:25:11;43.35;;;23.20;;
44764;SDS011;30484;52.382;5.260;2022-08-19T09:27:55;38.30;;;22.75;;
44764;SDS011;30484;52.382;5.260;2022-08-19T09:30:50;39.25;;;22.65;;
44764;SDS011;30484;52.382;5.260;2022-08-19T09:33:23;36.10;;;20.75;;
44764;SDS011;30484;52.382;5.260;2022-08-19T09:36:01;39.05;;;21.48;;
44764;SDS011;30484;52.382;5.260;2022-08-19T09:38:36;37.17;;;21.58;;
44764;SDS011;30484;52.382;5.260;2022-08-19T09:41:09;40.03;;;21.48;;
44764;SDS011;30484;52.382;5.260;2022-08-19T09:43:44;35.90;;;21.83;;
44764;SDS011;30484;52.382;5.260;2022-08-19T09:48:53;40.80;;;22.63;;
44764;SDS011;30484;52.382;5.260;2022-08-19T09:51:32;40.33;;;22.75;;
44764;SDS011;30484;52.382;5.260;2022-08-19T09:54:04;38.83;;;22.15;;
44764;SDS011;30484;52.382;5.260;2022-08-19T09:56:36;37.00;;;21.23;;
44764;SDS011;30484;52.382;5.260;2022-08-19T09:59:07;34.20;;;21.17;;
44764;SDS011;30484;52.382;5.260;2022-08-19T10:01:39;35.60;;;21.95;;
44764;SDS011;30484;52.382;5.260;2022-08-19T10:04:08;39.80;;;22.90;;
44764;SDS011;30484;52.382;5.260;2022-08-19T10:06:46;38.40;;;21.48;;
44764;SDS011;30484;52.382;5.260;2022-08-19T10:09:22;37.15;;;22.42;;
44764;SDS011;30484;52.382;5.260;2022-08-19T10:12:00;41.25;;;22.88;;
44764;SDS011;30484;52.382;5.260;2022-08-19T10:14:36;39.17;;;22.70;;
44764;SDS011;30484;52.382;5.260;2022-08-19T10:17:06;39.17;;;22.90;;
44764;SDS011;30484;52.382;5.260;2022-08-19T10:19:47;32.92;;;21.52;;
44764;SDS011;30484;52.382;5.260;2022-08-19T10:22:21;37.67;;;23.60;;
44764;SDS011;30484;52.382;5.260;2022-08-19T10:24:52;42.00;;;23.55;;
44764;SDS011;30484;52.382;5.260;2022-08-19T10:27:22;41.20;;;22.92;;
44764;SDS011;30484;52.382;5.260;2022-08-19T10:29:51;34.33;;;23.33;;
44764;SDS011;30484;52.382;5.260;2022-08-19T10:32:24;36.25;;;21.40;;
44764;SDS011;30484;52.382;5.260;2022-08-19T10:35:04;39.97;;;24.35;;
44764;SDS011;30484;52.382;5.260;2022-08-19T10:37:37;35.60;;;22.10;;
44764;SDS011;30484;52.382;5.260;2022-08-19T10:40:24;37.17;;;23.02;;
44764;SDS011;30484;52.382;5.260;2022-08-19T10:42:55;39.47;;;23.70;;
44764;SDS011;30484;52.382;5.260;2022-08-19T10:45:24;36.95;;;23.67;;
44764;SDS011;30484;52.382;5.260;2022-08-19T10:47:55;32.47;;;21.52;;
44764;SDS011;30484;52.382;5.260;2022-08-19T10:50:27;30.30;;;20.00;;
44764;SDS011;30484;52.382;5.260;2022-08-19T10:53:17;38.25;;;21.00;;
44764;SDS011;30484;52.382;5.260;2022-08-19T10:55:51;37.17;;;23.00;;
44764;SDS011;30484;52.382;5.260;2022-08-19T10:58:37;43.22;;;21.77;;
44764;SDS011;30484;52.382;5.260;2022-08-19T11:01:10;37.78;;;21.25;;
44764;SDS011;30484;52.382;5.260;2022-08-19T11:03:40;35.05;;;21.65;;
44764;SDS011;30484;52.382;5.260;2022-08-19T11:06:09;37.67;;;22.88;;
44764;SDS011;30484;52.382;5.260;2022-08-19T11:08:41;35.65;;;22.75;;
44764;SDS011;30484;52.382;5.260;2022-08-19T11:11:15;36.70;;;23.52;;
44764;SDS011;30484;52.382;5.260;2022-08-19T11:13:47;36.30;;;24.58;;
44764;SDS011;30484;52.382;5.260;2022-08-19T11:16:17;36.17;;;25.92;;
44764;SDS011;30484;52.382;5.260;2022-08-19T11:18:51;35.70;;;24.02;;
44764;SDS011;30484;52.382;5.260;2022-08-19T11:21:27;38.83;;;25.05;;
44764;SDS011;30484;52.382;5.260;2022-08-19T11:24:03;35.85;;;23.63;;
44764;SDS011;30484;52.382;5.260;2022-08-19T11:26:43;39.78;;;24.13;;
44764;SDS011;30484;52.382;5.260;2022-08-19T11:29:20;35.90;;;23.33;;
44764;SDS011;30484;52.382;5.260;2022-08-19T11:31:52;42.65;;;23.52;;
44764;SDS011;30484;52.382;5.260;2022-08-19T11:34:28;33.55;;;14.95;;
44764;SDS011;30484;52.382;5.260;2022-08-19T11:37:03;15.85;;;9.02;;
44764;SDS011;30484;52.382;5.260;2022-08-19T11:39:34;13.38;;;7.20;;
44764;SDS011;30484;52.382;5.260;2022-08-19T11:44:58;12.25;;;6.80;;
44764;SDS011;30484;52.382;5.260;2022-08-19T11:47:30;18.30;;;7.30;;
44764;SDS011;30484;52.382;5.260;2022-08-19T11:50:00;14.00;;;6.93;;
44764;SDS011;30484;52.382;5.260;2022-08-19T11:52:30;13.02;;;6.32;;
44764;SDS011;30484;52.382;5.260;2022-08-19T11:55:01;14.57;;;5.50;;
44764;SDS011;30484;52.382;5.260;2022-08-19T11:57:34;10.80;;;6.43;;
44764;SDS011;30484;52.382;5.260;2022-08-19T12:00:04;11.35;;;5.55;;
44764;SDS011;30484;52.382;5.260;2022-08-19T12:02:36;10.73;;;5.28;;
44764;SDS011;30484;52.382;5.260;2022-08-19T12:05:06;13.30;;;6.03;;
44764;SDS011;30484;52.382;5.260;2022-08-19T12:07:38;15.68;;;5.70;;
44764;SDS011;30484;52.382;5.260;2022-08-19T12:10:10;14.50;;;5.38;;
44764;SDS011;30484;52.382;5.260;2022-08-19T12:12:48;13.65;;;4.65;;
44764;SDS011;30484;52.382;5.260;2022-08-19T12:15:25;9.75;;;4.80;;
44764;SDS011;30484;52.382;5.260;2022-08-19T12:18:03;12.85;;;4.43;;
44764;SDS011;30484;52.382;5.260;2022-08-19T12:20:34;14.15;;;4.10;;
44764;SDS011;30484;52.382;5.260;2022-08-19T12:23:07;10.48;;;4.10;;
44764;SDS011;30484;52.382;5.260;2022-08-19T12:25:43;12.95;;;4.20;;
44764;SDS011;30484;52.382;5.260;2022-08-19T12:28:19;9.57;;;4.10;;
44764;SDS011;30484;52.382;5.260;2022-08-19T12:30:50;12.73;;;3.80;;
44764;SDS011;30484;52.382;5.260;2022-08-19T12:33:22;8.55;;;3.72;;
44764;SDS011;30484;52.382;5.260;2022-08-19T12:35:54;8.65;;;3.88;;
44764;SDS011;30484;52.382;5.260;2022-08-19T12:38:29;9.70;;;3.42;;
44764;SDS011;30484;52.382;5.260;2022-08-19T12:41:01;10.07;;;3.30;;
44764;SDS011;30484;52.382;5.260;2022-08-19T12:43:36;8.25;;;3.22;;
44764;SDS011;30484;52.382;5.260;2022-08-19T12:46:10;8.32;;;3.08;;
44764;SDS011;30484;52.382;5.260;2022-08-19T12:48:43;13.38;;;3.22;;
44764;SDS011;30484;52.382;5.260;2022-08-19T12:51:17;6.30;;;3.17;;
44764;SDS011;30484;52.382;5.260;2022-08-19T12:53:47;11.30;;;3.55;;
44764;SDS011;30484;52.382;5.260;2022-08-19T12:56:16;12.35;;;3.78;;
44764;SDS011;30484;52.382;5.260;2022-08-19T12:58:49;9.80;;;3.47;;
44764;SDS011;30484;52.382;5.260;2022-08-19T13:01:19;13.05;;;3.55;;
44764;SDS011;30484;52.382;5.260;2022-08-19T13:03:49;10.18;;;3.05;;
44764;SDS011;30484;52.382;5.260;2022-08-19T13:06:19;10.93;;;3.25;;
44764;SDS011;30484;52.382;5.260;2022-08-19T13:08:48;11.38;;;3.33;;
44764;SDS011;30484;52.382;5.260;2022-08-19T13:11:17;12.90;;;3.65;;
44764;SDS011;30484;52.382;5.260;2022-08-19T13:13:52;9.88;;;4.43;;
44764;SDS011;30484;52.382;5.260;2022-08-19T13:16:21;11.05;;;4.57;;
44764;SDS011;30484;52.382;5.260;2022-08-19T13:18:49;13.40;;;5.20;;
44764;SDS011;30484;52.382;5.260;2022-08-19T13:21:19;14.02;;;5.28;;
44764;SDS011;30484;52.382;5.260;2022-08-19T13:23:49;10.77;;;4.03;;
44764;SDS011;30484;52.382;5.260;2022-08-19T13:26:17;14.00;;;4.75;;
44764;SDS011;30484;52.382;5.260;2022-08-19T13:28:46;11.48;;;4.22;;
44764;SDS011;30484;52.382;5.260;2022-08-19T13:31:34;10.13;;;4.10;;
44764;SDS011;30484;52.382;5.260;2022-08-19T13:34:27;10.48;;;3.83;;
44764;SDS011;30484;52.382;5.260;2022-08-19T13:37:00;8.70;;;4.30;;
44764;SDS011;30484;52.382;5.260;2022-08-19T13:39:30;9.88;;;4.07;;
44764;SDS011;30484;52.382;5.260;2022-08-19T13:41:59;10.35;;;4.18;;
44764;SDS011;30484;52.382;5.260;2022-08-19T13:44:31;9.55;;;4.10;;
44764;SDS011;30484;52.382;5.260;2022-08-19T13:47:01;6.20;;;3.47;;
44764;SDS011;30484;52.382;5.260;2022-08-19T13:49:33;12.45;;;3.70;;
44764;SDS011;30484;52.382;5.260;2022-08-19T13:52:03;7.20;;;4.13;;
44764;SDS011;30484;52.382;5.260;2022-08-19T13:54:32;11.20;;;3.72;;
44764;SDS011;30484;52.382;5.260;2022-08-19T13:57:01;6.45;;;3.40;;
44764;SDS011;30484;52.382;5.260;2022-08-19T13:59:29;7.85;;;3.90;;
44764;SDS011;30484;52.382;5.260;2022-08-19T14:01:58;6.85;;;3.65;;
44764;SDS011;30484;52.382;5.260;2022-08-19T14:04:28;5.93;;;3.15;;
44764;SDS011;30484;52.382;5.260;2022-08-19T14:06:56;6.25;;;3.30;;
44764;SDS011;30484;52.382;5.260;2022-08-19T14:09:24;7.57;;;3.42;;
44764;SDS011;30484;52.382;5.260;2022-08-19T14:11:53;7.50;;;3.15;;
44764;SDS011;30484;52.382;5.260;2022-08-19T14:14:21;5.65;;;2.80;;
44764;SDS011;30484;52.382;5.260;2022-08-19T14:16:49;5.60;;;2.90;;
44764;SDS011;30484;52.382;5.260;2022-08-19T14:19:19;14.68;;;3.50;;
44764;SDS011;30484;52.382;5.260;2022-08-19T14:21:50;9.13;;;3.15;;
44764;SDS011;30484;52.382;5.260;2022-08-19T14:24:18;5.45;;;2.40;;
44764;SDS011;30484;52.382;5.260;2022-08-19T14:26:46;5.00;;;1.40;;
44764;SDS011;30484;52.382;5.260;2022-08-19T14:29:15;3.30;;;1.50;;
44764;SDS011;30484;52.382;5.260;2022-08-19T14:31:43;2.92;;;1.40;;
44764;SDS011;30484;52.382;5.260;2022-08-19T14:34:12;4.88;;;1.40;;
44764;SDS011;30484;52.382;5.260;2022-08-19T14:36:40;5.03;;;1.50;;
44764;SDS011;30484;52.382;5.260;2022-08-19T14:39:12;3.72;;;1.30;;
44764;SDS011;30484;52.382;5.260;2022-08-19T14:41:41;2.97;;;1.25;;
44764;SDS011;30484;52.382;5.260;2022-08-19T14:44:09;3.60;;;1.13;;
44764;SDS011;30484;52.382;5.260;2022-08-19T14:46:38;3.15;;;1.30;;
44764;SDS011;30484;52.382;5.260;2022-08-19T14:49:15;4.63;;;1.27;;
44764;SDS011;30484;52.382;5.260;2022-08-19T14:51:44;3.20;;;1.30;;
44764;SDS011;30484;52.382;5.260;2022-08-19T14:54:14;3.63;;;1.50;;
44764;SDS011;30484;52.382;5.260;2022-08-19T14:56:42;4.03;;;1.20;;
44764;SDS011;30484;52.382;5.260;2022-08-19T14:59:10;2.72;;;1.23;;
44764;SDS011;30484;52.382;5.260;2022-08-19T15:01:39;3.28;;;1.17;;
44764;SDS011;30484;52.382;5.260;2022-08-19T15:04:07;4.75;;;1.45;;
44764;SDS011;30484;52.382;5.260;2022-08-19T15:06:35;2.90;;;1.10;;
44764;SDS011;30484;52.382;5.260;2022-08-19T15:09:04;4.07;;;1.23;;